sensor_id;sensor_type;location;lat;lon;timestamp;pressure;altitude;pressure_sealevel;temperature;humidity
61039;BME280;46919;45.816;3.104;2022-12-20T00:00:53;98114.47;;;11.12;75.18
61039;BME280;46919;45.816;3.104;2022-12-20T00:03:18;98112.97;;;11.16;74.36
61039;BME280;46919;45.816;3.104;2022-12-20T00:05:44;98123.50;;;11.05;74.93
61039;BME280;46919;45.816;3.104;2022-12-20T00:08:10;98127.25;;;11.04;75.23
61039;BME280;46919;45.816;3.104;2022-12-20T00:10:37;98135.34;;;11.04;75.20
61039;BME280;46919;45.816;3.104;2022-12-20T00:13:03;98131.19;;;11.02;75.56
61039;BME280;46919;45.816;3.104;2022-12-20T00:15:29;98124.75;;;11.03;75.25
61039;BME280;46919;45.816;3.104;2022-12-20T00:17:55;98122.72;;;10.98;75.19
61039;BME280;46919;45.816;3.104;2022-12-20T00:20:21;98117.69;;;11.02;75.28
61039;BME280;46919;45.816;3.104;2022-12-20T00:22:46;98115.63;;;10.97;75.57
61039;BME280;46919;45.816;3.104;2022-12-20T00:25:12;98112.34;;;10.95;75.69
61039;BME280;46919;45.816;3.104;2022-12-20T00:27:37;98112.34;;;10.95;75.54
61039;BME280;46919;45.816;3.104;2022-12-20T00:30:03;98120.22;;;10.97;75.39
61039;BME280;46919;45.816;3.104;2022-12-20T00:32:30;98111.53;;;10.95;75.31
61039;BME280;46919;45.816;3.104;2022-12-20T00:34:55;98099.41;;;10.97;75.25
61039;BME280;46919;45.816;3.104;2022-12-20T00:37:21;98105.03;;;10.96;75.34
61039;BME280;46919;45.816;3.104;2022-12-20T00:39:46;98097.34;;;10.99;75.22
61039;BME280;46919;45.816;3.104;2022-12-20T00:42:12;98093.97;;;11.04;74.84
61039;BME280;46919;45.816;3.104;2022-12-20T00:44:37;98088.56;;;11.04;74.79
61039;BME280;46919;45.816;3.104;2022-12-20T00:47:02;98095.06;;;10.96;75.11
61039;BME280;46919;45.816;3.104;2022-12-20T00:49:28;98080.69;;;10.96;75.10
61039;BME280;46919;45.816;3.104;2022-12-20T00:51:53;98078.63;;;10.98;74.79
61039;BME280;46919;45.816;3.104;2022-12-20T00:54:18;98079.44;;;10.98;74.91
61039;BME280;46919;45.816;3.104;2022-12-20T00:56:44;98076.97;;;10.97;74.72
61039;BME280;46919;45.816;3.104;2022-12-20T00:59:09;98081.09;;;10.99;74.54
61039;BME280;46919;45.816;3.104;2022-12-20T01:01:35;98072.56;;;11.02;74.43
61039;BME280;46919;45.816;3.104;2022-12-20T01:04:01;98071.91;;;11.00;74.08
61039;BME280;46919;45.816;3.104;2022-12-20T01:06:27;98066.00;;;11.10;73.74
61039;BME280;46919;45.816;3.104;2022-12-20T01:08:54;98059.41;;;11.06;73.46
61039;BME280;46919;45.816;3.104;2022-12-20T01:11:22;98067.28;;;11.08;73.77
61039;BME280;46919;45.816;3.104;2022-12-20T01:13:51;98056.03;;;11.11;73.10
61039;BME280;46919;45.816;3.104;2022-12-20T01:16:31;98072.25;;;11.11;72.69
61039;BME280;46919;45.816;3.104;2022-12-20T01:18:57;98067.28;;;11.08;73.21
61039;BME280;46919;45.816;3.104;2022-12-20T01:21:24;98060.38;;;11.12;72.28
61039;BME280;46919;45.816;3.104;2022-12-20T01:23:50;98062.63;;;11.15;71.91
61039;BME280;46919;45.816;3.104;2022-12-20T01:26:18;98053.47;;;11.16;71.82
61039;BME280;46919;45.816;3.104;2022-12-20T01:28:45;98047.25;;;11.15;71.84
61039;BME280;46919;45.816;3.104;2022-12-20T01:31:14;98034.53;;;11.16;71.57
61039;BME280;46919;45.816;3.104;2022-12-20T01:33:40;98040.63;;;11.11;71.86
61039;BME280;46919;45.816;3.104;2022-12-20T01:36:09;98043.09;;;11.13;71.68
61039;BME280;46919;45.816;3.104;2022-12-20T01:38:35;98032.88;;;11.15;71.39
61039;BME280;46919;45.816;3.104;2022-12-20T01:41:01;98033.53;;;11.10;71.35
61039;BME280;46919;45.816;3.104;2022-12-20T01:43:49;98038.13;;;11.10;71.16
61039;BME280;46919;45.816;3.104;2022-12-20T01:46:15;98037.53;;;11.08;71.35
61039;BME280;46919;45.816;3.104;2022-12-20T01:48:43;98044.22;;;11.05;71.56
61039;BME280;46919;45.816;3.104;2022-12-20T01:51:12;98039.03;;;11.03;71.75
61039;BME280;46919;45.816;3.104;2022-12-20T01:53:38;98026.50;;;11.09;71.31
61039;BME280;46919;45.816;3.104;2022-12-20T01:56:05;98026.50;;;11.09;71.29
61039;BME280;46919;45.816;3.104;2022-12-20T01:58:32;98024.59;;;11.10;71.26
61039;BME280;46919;45.816;3.104;2022-12-20T02:00:59;98021.31;;;11.08;71.22
61039;BME280;46919;45.816;3.104;2022-12-20T02:03:24;98013.47;;;11.18;70.18
61039;BME280;46919;45.816;3.104;2022-12-20T02:05:50;98025.38;;;11.17;70.88
61039;BME280;46919;45.816;3.104;2022-12-20T02:08:18;98022.66;;;11.17;70.47
61039;BME280;46919;45.816;3.104;2022-12-20T02:11:10;98025.97;;;11.19;70.44
61039;BME280;46919;45.816;3.104;2022-12-20T02:16:21;98020.94;;;11.22;70.18
61039;BME280;46919;45.816;3.104;2022-12-20T02:19:04;98002.97;;;11.28;69.92
61039;BME280;46919;45.816;3.104;2022-12-20T02:21:44;98004.69;;;11.22;70.12
61039;BME280;46919;45.816;3.104;2022-12-20T02:30:07;98004.09;;;11.20;70.02
61039;BME280;46919;45.816;3.104;2022-12-20T02:35:12;98000.41;;;11.33;69.22
61039;BME280;46919;45.816;3.104;2022-12-20T02:37:50;97987.41;;;11.23;69.60
61039;BME280;46919;45.816;3.104;2022-12-20T02:40:21;97996.97;;;11.26;69.69
61039;BME280;46919;45.816;3.104;2022-12-20T02:42:50;97988.22;;;11.24;69.79
61039;BME280;46919;45.816;3.104;2022-12-20T02:45:17;97985.97;;;11.21;70.11
61039;BME280;46919;45.816;3.104;2022-12-20T02:48:00;97981.56;;;11.27;69.45
61039;BME280;46919;45.816;3.104;2022-12-20T02:50:43;97973.81;;;11.30;69.44
61039;BME280;46919;45.816;3.104;2022-12-20T02:53:10;97978.53;;;11.35;69.28
61039;BME280;46919;45.816;3.104;2022-12-20T02:56:00;97982.81;;;11.42;68.84
61039;BME280;46919;45.816;3.104;2022-12-20T02:58:32;97979.06;;;11.44;68.65
61039;BME280;46919;45.816;3.104;2022-12-20T03:01:03;97975.50;;;11.43;68.73
61039;BME280;46919;45.816;3.104;2022-12-20T03:03:34;97978.22;;;11.43;69.27
61039;BME280;46919;45.816;3.104;2022-12-20T03:06:00;97982.81;;;11.42;69.20
61039;BME280;46919;45.816;3.104;2022-12-20T03:08:26;97970.66;;;11.33;69.74
61039;BME280;46919;45.816;3.104;2022-12-20T03:10:53;97970.38;;;11.23;70.48
61039;BME280;46919;45.816;3.104;2022-12-20T03:13:20;97960.38;;;11.23;70.85
61039;BME280;46919;45.816;3.104;2022-12-20T03:15:46;97968.03;;;11.27;70.75
61039;BME280;46919;45.816;3.104;2022-12-20T03:18:11;97972.63;;;11.26;70.83
61039;BME280;46919;45.816;3.104;2022-12-20T03:20:37;97971.22;;;11.35;70.65
61039;BME280;46919;45.816;3.104;2022-12-20T03:23:02;97966.44;;;11.37;70.28
61039;BME280;46919;45.816;3.104;2022-12-20T03:25:28;97972.06;;;11.36;70.51
61039;BME280;46919;45.816;3.104;2022-12-20T03:27:53;97970.88;;;11.32;71.01
61039;BME280;46919;45.816;3.104;2022-12-20T03:30:19;97972.44;;;11.39;70.72
61039;BME280;46919;45.816;3.104;2022-12-20T03:32:44;97955.75;;;11.42;70.73
61039;BME280;46919;45.816;3.104;2022-12-20T03:35:10;97962.22;;;11.41;70.73
61039;BME280;46919;45.816;3.104;2022-12-20T03:37:35;97963.75;;;11.37;71.01
61039;BME280;46919;45.816;3.104;2022-12-20T03:40:01;97958.56;;;11.36;71.22
61039;BME280;46919;45.816;3.104;2022-12-20T03:42:26;97966.66;;;11.36;71.51
61039;BME280;46919;45.816;3.104;2022-12-20T03:44:52;97965.81;;;11.35;71.19
61039;BME280;46919;45.816;3.104;2022-12-20T03:47:17;97963.34;;;11.34;71.64
61039;BME280;46919;45.816;3.104;2022-12-20T03:49:43;97954.53;;;11.38;71.46
61039;BME280;46919;45.816;3.104;2022-12-20T03:52:11;97944.19;;;11.35;71.52
61039;BME280;46919;45.816;3.104;2022-12-20T03:54:36;97946.19;;;11.40;71.26
61039;BME280;46919;45.816;3.104;2022-12-20T03:57:02;97955.16;;;11.40;71.37
61039;BME280;46919;45.816;3.104;2022-12-20T03:59:27;97948.09;;;11.39;71.66
61039;BME280;46919;45.816;3.104;2022-12-20T04:01:52;97953.97;;;11.36;71.82
61039;BME280;46919;45.816;3.104;2022-12-20T04:04:18;97950.00;;;11.51;71.28
61039;BME280;46919;45.816;3.104;2022-12-20T04:06:43;97951.16;;;11.43;71.61
61039;BME280;46919;45.816;3.104;2022-12-20T04:09:09;97960.72;;;11.46;71.61
61039;BME280;46919;45.816;3.104;2022-12-20T04:11:34;97957.41;;;11.44;71.82
61039;BME280;46919;45.816;3.104;2022-12-20T04:14:00;97961.66;;;11.51;71.71
61039;BME280;46919;45.816;3.104;2022-12-20T04:16:27;97968.50;;;11.54;71.56
61039;BME280;46919;45.816;3.104;2022-12-20T04:18:53;97973.09;;;11.53;71.53
61039;BME280;46919;45.816;3.104;2022-12-20T04:21:27;97976.41;;;11.55;71.65
61039;BME280;46919;45.816;3.104;2022-12-20T04:23:53;97972.25;;;11.53;71.89
61039;BME280;46919;45.816;3.104;2022-12-20T04:26:19;97968.38;;;11.49;71.73
61039;BME280;46919;45.816;3.104;2022-12-20T04:28:44;97967.78;;;11.47;71.95
61039;BME280;46919;45.816;3.104;2022-12-20T04:31:10;97962.59;;;11.45;71.91
61039;BME280;46919;45.816;3.104;2022-12-20T04:33:36;97961.75;;;11.45;72.19
61039;BME280;46919;45.816;3.104;2022-12-20T04:36:02;97966.22;;;11.39;72.33
61039;BME280;46919;45.816;3.104;2022-12-20T04:38:28;97965.00;;;11.35;72.59
61039;BME280;46919;45.816;3.104;2022-12-20T04:40:54;97969.28;;;11.24;73.20
61039;BME280;46919;45.816;3.104;2022-12-20T04:43:20;97965.91;;;11.29;73.16
61039;BME280;46919;45.816;3.104;2022-12-20T04:45:47;97964.66;;;11.31;72.75
61039;BME280;46919;45.816;3.104;2022-12-20T04:48:12;97968.84;;;11.27;73.02
61039;BME280;46919;45.816;3.104;2022-12-20T04:50:38;97961.81;;;11.26;73.17
61039;BME280;46919;45.816;3.104;2022-12-20T04:53:04;97957.94;;;11.34;72.83
61039;BME280;46919;45.816;3.104;2022-12-20T04:55:47;97952.84;;;11.26;73.04
61039;BME280;46919;45.816;3.104;2022-12-20T04:58:13;97953.47;;;11.28;73.29
61039;BME280;46919;45.816;3.104;2022-12-20T05:00:38;97957.56;;;11.30;73.17
61039;BME280;46919;45.816;3.104;2022-12-20T05:03:04;97964.28;;;11.28;73.22
61039;BME280;46919;45.816;3.104;2022-12-20T05:05:29;97963.44;;;11.27;73.46
61039;BME280;46919;45.816;3.104;2022-12-20T05:07:55;97968.13;;;11.20;73.57
61039;BME280;46919;45.816;3.104;2022-12-20T05:10:20;97955.72;;;11.12;74.18
61039;BME280;46919;45.816;3.104;2022-12-20T05:12:46;97950.69;;;11.16;74.27
61039;BME280;46919;45.816;3.104;2022-12-20T05:15:11;97958.47;;;11.24;74.01
61039;BME280;46919;45.816;3.104;2022-12-20T05:17:37;97956.84;;;11.23;74.10
61039;BME280;46919;45.816;3.104;2022-12-20T05:20:04;97958.69;;;11.22;74.11
61039;BME280;46919;45.816;3.104;2022-12-20T05:22:30;97958.13;;;11.20;74.63
61039;BME280;46919;45.816;3.104;2022-12-20T05:25:14;97953.81;;;11.31;74.30
61039;BME280;46919;45.816;3.104;2022-12-20T05:27:58;97963.75;;;11.37;74.22
61039;BME280;46919;45.816;3.104;2022-12-20T05:30:24;97953.38;;;11.34;75.02
61039;BME280;46919;45.816;3.104;2022-12-20T05:32:50;97954.19;;;11.35;74.88
61039;BME280;46919;45.816;3.104;2022-12-20T05:35:16;97957.13;;;11.33;75.32
61039;BME280;46919;45.816;3.104;2022-12-20T05:37:41;97941.69;;;11.34;75.60
61039;BME280;46919;45.816;3.104;2022-12-20T05:40:07;97929.47;;;11.31;75.80
61039;BME280;46919;45.816;3.104;2022-12-20T05:42:32;97943.00;;;11.31;76.35
61039;BME280;46919;45.816;3.104;2022-12-20T05:44:58;97941.34;;;11.30;76.61
61039;BME280;46919;45.816;3.104;2022-12-20T05:47:25;97935.00;;;11.36;76.27
61039;BME280;46919;45.816;3.104;2022-12-20T05:49:50;97924.09;;;11.43;76.33
61039;BME280;46919;45.816;3.104;2022-12-20T05:52:16;97920.69;;;11.48;76.15
61039;BME280;46919;45.816;3.104;2022-12-20T05:54:41;97922.81;;;11.46;76.35
61039;BME280;46919;45.816;3.104;2022-12-20T05:57:06;97922.72;;;11.52;76.26
61039;BME280;46919;45.816;3.104;2022-12-20T05:59:32;97921.69;;;11.53;76.35
61039;BME280;46919;45.816;3.104;2022-12-20T06:01:57;97915.88;;;11.50;76.87
61039;BME280;46919;45.816;3.104;2022-12-20T06:04:22;97910.16;;;11.58;76.52
61039;BME280;46919;45.816;3.104;2022-12-20T06:06:48;97901.81;;;11.59;76.63
61039;BME280;46919;45.816;3.104;2022-12-20T06:09:13;97912.63;;;11.59;76.91
61039;BME280;46919;45.816;3.104;2022-12-20T06:11:39;97907.94;;;11.67;76.75
61039;BME280;46919;45.816;3.104;2022-12-20T06:14:04;97902.88;;;11.70;76.71
61039;BME280;46919;45.816;3.104;2022-12-20T06:16:30;97905.13;;;11.73;76.69
61039;BME280;46919;45.816;3.104;2022-12-20T06:18:55;97902.41;;;11.73;76.83
61039;BME280;46919;45.816;3.104;2022-12-20T06:21:21;97915.88;;;11.80;76.53
61039;BME280;46919;45.816;3.104;2022-12-20T06:23:47;97906.44;;;11.83;76.62
61039;BME280;46919;45.816;3.104;2022-12-20T06:26:12;97909.16;;;11.83;76.86
61039;BME280;46919;45.816;3.104;2022-12-20T06:28:37;97894.91;;;11.75;77.11
61039;BME280;46919;45.816;3.104;2022-12-20T06:31:07;97897.84;;;11.74;77.51
61039;BME280;46919;45.816;3.104;2022-12-20T06:33:33;97890.41;;;11.69;77.69
61039;BME280;46919;45.816;3.104;2022-12-20T06:35:59;97894.53;;;11.72;77.64
61039;BME280;46919;45.816;3.104;2022-12-20T06:38:24;97894.91;;;11.75;77.34
61039;BME280;46919;45.816;3.104;2022-12-20T06:40:50;97881.25;;;11.82;77.03
61039;BME280;46919;45.816;3.104;2022-12-20T06:43:15;97875.59;;;11.84;77.31
61039;BME280;46919;45.816;3.104;2022-12-20T06:45:41;97892.44;;;11.86;76.92
61039;BME280;46919;45.816;3.104;2022-12-20T06:48:07;97882.38;;;11.93;76.56
61039;BME280;46919;45.816;3.104;2022-12-20T06:50:32;97887.59;;;11.88;76.75
61039;BME280;46919;45.816;3.104;2022-12-20T06:52:57;97881.47;;;11.81;77.22
61039;BME280;46919;45.816;3.104;2022-12-20T06:55:23;97869.91;;;11.73;77.57
61039;BME280;46919;45.816;3.104;2022-12-20T06:57:48;97875.59;;;11.84;77.37
61039;BME280;46919;45.816;3.104;2022-12-20T07:00:14;97870.19;;;11.84;77.19
61039;BME280;46919;45.816;3.104;2022-12-20T07:02:40;97861.47;;;11.82;77.35
61039;BME280;46919;45.816;3.104;2022-12-20T07:05:06;97870.41;;;11.82;77.76
61039;BME280;46919;45.816;3.104;2022-12-20T07:07:31;97872.66;;;11.85;77.44
61039;BME280;46919;45.816;3.104;2022-12-20T07:09:57;97880.56;;;11.87;77.46
61039;BME280;46919;45.816;3.104;2022-12-20T07:12:23;97865.03;;;11.94;77.25
61039;BME280;46919;45.816;3.104;2022-12-20T07:14:48;97863.84;;;11.90;77.30
61039;BME280;46919;45.816;3.104;2022-12-20T07:17:14;97878.78;;;11.81;78.01
61039;BME280;46919;45.816;3.104;2022-12-20T07:19:39;97862.25;;;11.70;78.59
61039;BME280;46919;45.816;3.104;2022-12-20T07:22:05;97858.63;;;11.76;78.45
61039;BME280;46919;45.816;3.104;2022-12-20T07:24:31;97850.66;;;11.82;78.20
61039;BME280;46919;45.816;3.104;2022-12-20T07:26:57;97851.69;;;11.81;78.32
61039;BME280;46919;45.816;3.104;2022-12-20T07:29:22;97841.81;;;11.74;78.49
61039;BME280;46919;45.816;3.104;2022-12-20T07:31:48;97835.91;;;11.77;78.26
61039;BME280;46919;45.816;3.104;2022-12-20T07:34:13;97854.38;;;11.69;78.71
61039;BME280;46919;45.816;3.104;2022-12-20T07:36:39;97852.97;;;11.66;79.00
61039;BME280;46919;45.816;3.104;2022-12-20T07:39:04;97857.66;;;11.59;79.31
61039;BME280;46919;45.816;3.104;2022-12-20T07:41:30;97868.94;;;11.56;79.58
61039;BME280;46919;45.816;3.104;2022-12-20T07:43:55;97864.00;;;11.53;79.68
61039;BME280;46919;45.816;3.104;2022-12-20T07:46:23;97863.06;;;11.59;79.63
61039;BME280;46919;45.816;3.104;2022-12-20T07:48:48;97858.38;;;11.66;79.12
61039;BME280;46919;45.816;3.104;2022-12-20T07:51:30;97849.81;;;11.69;79.45
61039;BME280;46919;45.816;3.104;2022-12-20T07:54:06;97851.19;;;11.72;79.05
61039;BME280;46919;45.816;3.104;2022-12-20T07:56:35;97857.47;;;11.72;79.28
61039;BME280;46919;45.816;3.104;2022-12-20T07:59:04;97854.53;;;11.86;78.35
61039;BME280;46919;45.816;3.104;2022-12-20T08:01:30;97856.69;;;11.95;77.88
61039;BME280;46919;45.816;3.104;2022-12-20T08:04:03;97847.38;;;12.03;77.59
61039;BME280;46919;45.816;3.104;2022-12-20T08:06:30;97851.16;;;12.02;77.74
61039;BME280;46919;45.816;3.104;2022-12-20T08:08:58;97850.19;;;12.08;77.13
61039;BME280;46919;45.816;3.104;2022-12-20T08:11:26;97859.06;;;12.16;76.58
61039;BME280;46919;45.816;3.104;2022-12-20T08:13:53;97851.88;;;12.21;76.58
61039;BME280;46919;45.816;3.104;2022-12-20T08:16:19;97864.44;;;12.27;76.00
61039;BME280;46919;45.816;3.104;2022-12-20T08:18:44;97858.56;;;12.30;75.92
61039;BME280;46919;45.816;3.104;2022-12-20T08:21:10;97843.25;;;12.36;75.43
61039;BME280;46919;45.816;3.104;2022-12-20T08:23:37;97847.63;;;12.37;75.16
61039;BME280;46919;45.816;3.104;2022-12-20T08:26:03;97857.50;;;12.43;74.88
61039;BME280;46919;45.816;3.104;2022-12-20T08:28:28;97854.78;;;12.43;74.86
61039;BME280;46919;45.816;3.104;2022-12-20T08:31:00;97867.38;;;12.49;74.34
61039;BME280;46919;45.816;3.104;2022-12-20T08:33:25;97865.16;;;12.46;74.48
61039;BME280;46919;45.816;3.104;2022-12-20T08:35:57;97859.25;;;12.49;74.14
61039;BME280;46919;45.816;3.104;2022-12-20T08:38:25;97853.59;;;12.51;74.29
61039;BME280;46919;45.816;3.104;2022-12-20T08:40:50;97847.69;;;12.54;73.96
61039;BME280;46919;45.816;3.104;2022-12-20T08:43:15;97868.09;;;12.57;73.86
61039;BME280;46919;45.816;3.104;2022-12-20T08:45:41;97856.78;;;12.60;73.74
61039;BME280;46919;45.816;3.104;2022-12-20T08:48:06;97866.44;;;12.56;73.83
61039;BME280;46919;45.816;3.104;2022-12-20T08:50:32;97859.00;;;12.63;73.44
61039;BME280;46919;45.816;3.104;2022-12-20T08:52:57;97854.63;;;12.62;73.50
61039;BME280;46919;45.816;3.104;2022-12-20T08:55:22;97860.41;;;12.65;73.10
61039;BME280;46919;45.816;3.104;2022-12-20T08:57:48;97866.78;;;12.71;73.11
61039;BME280;46919;45.816;3.104;2022-12-20T09:00:13;97868.19;;;12.74;73.11
61039;BME280;46919;45.816;3.104;2022-12-20T09:02:39;97875.34;;;12.80;72.56
61039;BME280;46919;45.816;3.104;2022-12-20T09:05:05;97862.16;;;12.83;72.38
61039;BME280;46919;45.816;3.104;2022-12-20T09:07:31;97860.97;;;12.79;72.62
61039;BME280;46919;45.816;3.104;2022-12-20T09:09:56;97862.16;;;12.83;72.49
61039;BME280;46919;45.816;3.104;2022-12-20T09:12:21;97864.47;;;12.92;72.10
61039;BME280;46919;45.816;3.104;2022-12-20T09:14:47;97867.53;;;12.95;71.69
61039;BME280;46919;45.816;3.104;2022-12-20T09:17:13;97870.09;;;13.02;71.36
61039;BME280;46919;45.816;3.104;2022-12-20T09:19:38;97870.56;;;12.99;71.82
61039;BME280;46919;45.816;3.104;2022-12-20T09:22:03;97869.28;;;13.01;71.38
61039;BME280;46919;45.816;3.104;2022-12-20T09:24:29;97856.66;;;13.07;71.07
61039;BME280;46919;45.816;3.104;2022-12-20T09:26:54;97871.84;;;13.08;70.91
61039;BME280;46919;45.816;3.104;2022-12-20T09:29:20;97866.06;;;13.16;70.61
61039;BME280;46919;45.816;3.104;2022-12-20T09:31:45;97873.81;;;13.25;70.56
61039;BME280;46919;45.816;3.104;2022-12-20T09:34:10;97877.81;;;13.34;70.31
61039;BME280;46919;45.816;3.104;2022-12-20T09:36:36;97869.75;;;13.39;70.33
61039;BME280;46919;45.816;3.104;2022-12-20T09:39:02;97866.56;;;13.42;70.00
61039;BME280;46919;45.816;3.104;2022-12-20T09:41:33;97874.22;;;13.45;69.72
61039;BME280;46919;45.816;3.104;2022-12-20T09:44:06;97868.19;;;13.43;70.40
61039;BME280;46919;45.816;3.104;2022-12-20T09:46:37;97877.91;;;13.39;70.65
61039;BME280;46919;45.816;3.104;2022-12-20T09:49:04;97879.78;;;13.38;70.81
61039;BME280;46919;45.816;3.104;2022-12-20T09:51:53;97873.53;;;13.38;70.68
61039;BME280;46919;45.816;3.104;2022-12-20T09:59:42;97867.63;;;13.41;70.33
61039;BME280;46919;45.816;3.104;2022-12-20T10:02:10;97858.81;;;13.51;69.60
61039;BME280;46919;45.816;3.104;2022-12-20T10:04:37;97858.94;;;13.73;68.55
61039;BME280;46919;45.816;3.104;2022-12-20T10:10:25;97882.31;;;14.25;66.99
61039;BME280;46919;45.816;3.104;2022-12-20T10:13:05;97879.16;;;14.50;65.86
61039;BME280;46919;45.816;3.104;2022-12-20T10:21:43;97881.75;;;14.79;65.05
61039;BME280;46919;45.816;3.104;2022-12-20T10:24:20;97877.75;;;14.87;64.85
61039;BME280;46919;45.816;3.104;2022-12-20T10:26:50;97877.38;;;15.00;64.18
61039;BME280;46919;45.816;3.104;2022-12-20T10:29:17;97872.19;;;14.98;63.50
61039;BME280;46919;45.816;3.104;2022-12-20T10:31:43;97870.97;;;14.89;63.70
61039;BME280;46919;45.816;3.104;2022-12-20T10:34:08;97871.16;;;14.82;64.03
61039;BME280;46919;45.816;3.104;2022-12-20T10:36:35;97881.22;;;14.82;63.67
61039;BME280;46919;45.816;3.104;2022-12-20T10:39:06;97868.06;;;14.74;64.01
61039;BME280;46919;45.816;3.104;2022-12-20T10:44:26;97859.69;;;14.58;63.58
61039;BME280;46919;45.816;3.104;2022-12-20T10:46:55;97857.47;;;14.55;63.89
61039;BME280;46919;45.816;3.104;2022-12-20T10:49:27;97877.31;;;14.56;64.32
61039;BME280;46919;45.816;3.104;2022-12-20T10:51:55;97856.06;;;14.53;64.41
61039;BME280;46919;45.816;3.104;2022-12-20T10:54:23;97863.72;;;14.56;63.45
61039;BME280;46919;45.816;3.104;2022-12-20T10:57:00;97854.81;;;14.60;63.46
61039;BME280;46919;45.816;3.104;2022-12-20T10:59:35;97853.16;;;14.59;63.18
61039;BME280;46919;45.816;3.104;2022-12-20T11:02:19;97864.16;;;14.64;63.10
61039;BME280;46919;45.816;3.104;2022-12-20T11:08:18;97846.88;;;14.76;62.20
61039;BME280;46919;45.816;3.104;2022-12-20T11:10:28;97842.25;;;14.76;62.64
61039;BME280;46919;45.816;3.104;2022-12-20T11:12:58;97842.09;;;14.83;62.82
61039;BME280;46919;45.816;3.104;2022-12-20T11:15:27;97840.53;;;14.92;63.01
61039;BME280;46919;45.816;3.104;2022-12-20T11:18:03;97837.91;;;14.97;62.27
61039;BME280;46919;45.816;3.104;2022-12-20T11:23:40;97811.50;;;14.98;62.03
61039;BME280;46919;45.816;3.104;2022-12-20T11:35:51;97794.53;;;14.91;61.86
61039;BME280;46919;45.816;3.104;2022-12-20T11:41:55;97790.28;;;15.00;61.57
61039;BME280;46919;45.816;3.104;2022-12-20T11:52:16;97784.63;;;15.07;60.71
61039;BME280;46919;45.816;3.104;2022-12-20T11:54:52;97779.81;;;15.14;60.57
61039;BME280;46919;45.816;3.104;2022-12-20T11:57:28;97766.56;;;15.23;60.26
61039;BME280;46919;45.816;3.104;2022-12-20T11:59:59;97759.28;;;15.33;60.18
61039;BME280;46919;45.816;3.104;2022-12-20T12:05:12;97742.19;;;15.75;59.39
61039;BME280;46919;45.816;3.104;2022-12-20T12:07:40;97743.19;;;15.97;59.01
61039;BME280;46919;45.816;3.104;2022-12-20T12:10:21;97742.41;;;16.06;58.19
61039;BME280;46919;45.816;3.104;2022-12-20T12:13:14;97740.28;;;16.14;57.95
61039;BME280;46919;45.816;3.104;2022-12-20T12:15:52;97729.47;;;16.34;56.91
61039;BME280;46919;45.816;3.104;2022-12-20T12:18:22;97732.72;;;16.26;57.12
61039;BME280;46919;45.816;3.104;2022-12-20T12:21:02;97731.28;;;16.13;56.81
61039;BME280;46919;45.816;3.104;2022-12-20T12:26:28;97727.69;;;16.02;57.88
61039;BME280;46919;45.816;3.104;2022-12-20T12:28:57;97718.25;;;16.25;57.56
61039;BME280;46919;45.816;3.104;2022-12-20T12:31:35;97712.88;;;16.46;56.86
61039;BME280;46919;45.816;3.104;2022-12-20T12:45:49;97704.84;;;16.14;57.91
61039;BME280;46919;45.816;3.104;2022-12-20T12:48:20;97712.00;;;16.30;57.63
61039;BME280;46919;45.816;3.104;2022-12-20T12:50:49;97702.75;;;16.36;57.38
61039;BME280;46919;45.816;3.104;2022-12-20T12:53:25;97703.59;;;16.42;57.30
61039;BME280;46919;45.816;3.104;2022-12-20T12:55:55;97697.00;;;16.33;57.64
61039;BME280;46919;45.816;3.104;2022-12-20T13:00:50;97689.75;;;16.69;56.85
61039;BME280;46919;45.816;3.104;2022-12-20T13:03:44;97678.63;;;16.96;55.95
61039;BME280;46919;45.816;3.104;2022-12-20T13:11:40;97667.72;;;17.22;54.84
61039;BME280;46919;45.816;3.104;2022-12-20T13:17:46;97660.91;;;17.19;53.93
61039;BME280;46919;45.816;3.104;2022-12-20T13:19:48;97668.78;;;16.80;54.61
61039;BME280;46919;45.816;3.104;2022-12-20T13:22:24;97670.13;;;16.67;54.38
61039;BME280;46919;45.816;3.104;2022-12-20T13:24:54;97668.44;;;16.56;54.54
61039;BME280;46919;45.816;3.104;2022-12-20T13:27:25;97665.69;;;16.56;55.07
61039;BME280;46919;45.816;3.104;2022-12-20T13:43:22;97674.66;;;16.36;55.11
61039;BME280;46919;45.816;3.104;2022-12-20T13:45:53;97669.75;;;16.38;54.99
61039;BME280;46919;45.816;3.104;2022-12-20T13:48:37;97667.84;;;16.38;54.93
61039;BME280;46919;45.816;3.104;2022-12-20T13:51:04;97670.28;;;16.24;55.09
61039;BME280;46919;45.816;3.104;2022-12-20T13:53:32;97666.66;;;16.08;55.11
61039;BME280;46919;45.816;3.104;2022-12-20T13:55:57;97669.84;;;15.95;55.46
61039;BME280;46919;45.816;3.104;2022-12-20T13:58:32;97671.50;;;15.96;55.03
61039;BME280;46919;45.816;3.104;2022-12-20T14:01:10;97650.22;;;15.93;55.39
61039;BME280;46919;45.816;3.104;2022-12-20T14:03:41;97654.13;;;16.12;54.60
61039;BME280;46919;45.816;3.104;2022-12-20T14:06:11;97645.19;;;16.27;54.36
61039;BME280;46919;45.816;3.104;2022-12-20T14:08:41;97661.22;;;16.19;54.86
61039;BME280;46919;45.816;3.104;2022-12-20T14:11:21;97655.97;;;16.02;55.09
61039;BME280;46919;45.816;3.104;2022-12-20T14:13:53;97666.56;;;15.88;55.50
61039;BME280;46919;45.816;3.104;2022-12-20T14:16:19;97669.50;;;15.81;55.38
61039;BME280;46919;45.816;3.104;2022-12-20T14:19:02;97670.81;;;15.73;55.89
61039;BME280;46919;45.816;3.104;2022-12-20T14:21:28;97670.88;;;15.79;55.90
61039;BME280;46919;45.816;3.104;2022-12-20T14:23:58;97674.34;;;15.74;56.00
61039;BME280;46919;45.816;3.104;2022-12-20T14:26:40;97671.59;;;15.69;55.83
61039;BME280;46919;45.816;3.104;2022-12-20T14:29:15;97667.75;;;15.65;55.79
61039;BME280;46919;45.816;3.104;2022-12-20T14:31:43;97669.13;;;15.67;56.16
61039;BME280;46919;45.816;3.104;2022-12-20T14:36:43;97681.91;;;15.62;56.03
61039;BME280;46919;45.816;3.104;2022-12-20T14:39:23;97686.00;;;15.64;55.95
61039;BME280;46919;45.816;3.104;2022-12-20T14:42:11;97696.28;;;15.57;56.36
61039;BME280;46919;45.816;3.104;2022-12-20T14:44:37;97704.97;;;15.49;56.38
61039;BME280;46919;45.816;3.104;2022-12-20T14:47:13;97696.75;;;15.44;56.92